sensor_id;sensor_type;location;lat;lon;timestamp;P1;durP1;ratioP1;P2;durP2;ratioP2
4377;SDS011;2203;53.686;9.994;2022-11-25T00:01:08;32.63;;;12.70;;
4377;SDS011;2203;53.686;9.994;2022-11-25T00:03:36;23.10;;;11.90;;
4377;SDS011;2203;53.686;9.994;2022-11-25T00:06:12;24.53;;;11.27;;
4377;SDS011;2203;53.686;9.994;2022-11-25T00:08:49;33.20;;;12.10;;
4377;SDS011;2203;53.686;9.994;2022-11-25T00:11:16;22.13;;;11.53;;
4377;SDS011;2203;53.686;9.994;2022-11-25T00:13:42;44.03;;;12.07;;
4377;SDS011;2203;53.686;9.994;2022-11-25T00:16:10;30.97;;;11.20;;
4377;SDS011;2203;53.686;9.994;2022-11-25T00:18:37;49.37;;;12.57;;
4377;SDS011;2203;53.686;9.994;2022-11-25T00:21:13;23.00;;;11.70;;
4377;SDS011;2203;53.686;9.994;2022-11-25T00:23:41;46.37;;;10.33;;
4377;SDS011;2203;53.686;9.994;2022-11-25T00:26:13;41.43;;;12.10;;
4377;SDS011;2203;53.686;9.994;2022-11-25T00:28:41;24.17;;;11.10;;
4377;SDS011;2203;53.686;9.994;2022-11-25T00:31:11;32.03;;;11.60;;
4377;SDS011;2203;53.686;9.994;2022-11-25T00:33:38;72.37;;;11.57;;
4377;SDS011;2203;53.686;9.994;2022-11-25T00:36:05;51.53;;;12.27;;
4377;SDS011;2203;53.686;9.994;2022-11-25T00:38:31;34.00;;;12.40;;
4377;SDS011;2203;53.686;9.994;2022-11-25T00:40:57;72.97;;;11.50;;
4377;SDS011;2203;53.686;9.994;2022-11-25T00:43:41;38.27;;;12.67;;
4377;SDS011;2203;53.686;9.994;2022-11-25T00:46:25;41.77;;;12.00;;
4377;SDS011;2203;53.686;9.994;2022-11-25T00:48:50;48.67;;;12.70;;
4377;SDS011;2203;53.686;9.994;2022-11-25T00:51:16;28.70;;;12.23;;
4377;SDS011;2203;53.686;9.994;2022-11-25T00:53:42;30.50;;;12.80;;
4377;SDS011;2203;53.686;9.994;2022-11-25T00:56:07;24.83;;;13.30;;
4377;SDS011;2203;53.686;9.994;2022-11-25T00:58:39;24.30;;;11.97;;
4377;SDS011;2203;53.686;9.994;2022-11-25T01:01:05;23.27;;;13.30;;
4377;SDS011;2203;53.686;9.994;2022-11-25T01:03:31;50.33;;;12.43;;
4377;SDS011;2203;53.686;9.994;2022-11-25T01:06:00;85.20;;;13.03;;
4377;SDS011;2203;53.686;9.994;2022-11-25T01:08:30;42.13;;;12.03;;
4377;SDS011;2203;53.686;9.994;2022-11-25T01:11:03;27.77;;;13.43;;
4377;SDS011;2203;53.686;9.994;2022-11-25T01:13:34;48.77;;;14.70;;
4377;SDS011;2203;53.686;9.994;2022-11-25T01:16:00;44.13;;;13.40;;
4377;SDS011;2203;53.686;9.994;2022-11-25T01:18:28;35.23;;;13.93;;
4377;SDS011;2203;53.686;9.994;2022-11-25T01:20:54;28.97;;;13.80;;
4377;SDS011;2203;53.686;9.994;2022-11-25T01:23:20;33.57;;;14.40;;
4377;SDS011;2203;53.686;9.994;2022-11-25T01:25:45;31.60;;;15.40;;
4377;SDS011;2203;53.686;9.994;2022-11-25T01:28:11;26.73;;;15.50;;
4377;SDS011;2203;53.686;9.994;2022-11-25T01:30:38;22.93;;;13.87;;
4377;SDS011;2203;53.686;9.994;2022-11-25T01:33:03;28.87;;;14.80;;
4377;SDS011;2203;53.686;9.994;2022-11-25T01:35:29;29.53;;;15.00;;
4377;SDS011;2203;53.686;9.994;2022-11-25T01:37:54;30.10;;;15.30;;
4377;SDS011;2203;53.686;9.994;2022-11-25T01:40:19;26.20;;;15.73;;
4377;SDS011;2203;53.686;9.994;2022-11-25T01:42:45;26.30;;;15.60;;
4377;SDS011;2203;53.686;9.994;2022-11-25T01:48:00;34.93;;;15.43;;
4377;SDS011;2203;53.686;9.994;2022-11-25T01:50:28;33.27;;;15.20;;
4377;SDS011;2203;53.686;9.994;2022-11-25T01:52:56;31.30;;;14.93;;
4377;SDS011;2203;53.686;9.994;2022-11-25T01:55:23;25.60;;;14.43;;
4377;SDS011;2203;53.686;9.994;2022-11-25T01:57:53;27.43;;;14.70;;
4377;SDS011;2203;53.686;9.994;2022-11-25T02:00:23;38.30;;;15.00;;
4377;SDS011;2203;53.686;9.994;2022-11-25T02:02:49;27.07;;;15.90;;
4377;SDS011;2203;53.686;9.994;2022-11-25T02:05:18;30.90;;;14.83;;
4377;SDS011;2203;53.686;9.994;2022-11-25T02:07:46;26.97;;;15.50;;
4377;SDS011;2203;53.686;9.994;2022-11-25T02:10:13;30.03;;;16.03;;
4377;SDS011;2203;53.686;9.994;2022-11-25T02:12:42;31.30;;;15.80;;
4377;SDS011;2203;53.686;9.994;2022-11-25T02:15:09;28.37;;;15.90;;
4377;SDS011;2203;53.686;9.994;2022-11-25T02:17:34;32.13;;;15.60;;
4377;SDS011;2203;53.686;9.994;2022-11-25T02:20:05;35.03;;;17.10;;
4377;SDS011;2203;53.686;9.994;2022-11-25T02:25:14;33.77;;;16.13;;
4377;SDS011;2203;53.686;9.994;2022-11-25T02:27:41;25.90;;;15.40;;
4377;SDS011;2203;53.686;9.994;2022-11-25T02:30:09;36.80;;;16.60;;
4377;SDS011;2203;53.686;9.994;2022-11-25T02:32:34;31.50;;;15.23;;
4377;SDS011;2203;53.686;9.994;2022-11-25T02:35:00;31.33;;;16.50;;
4377;SDS011;2203;53.686;9.994;2022-11-25T02:37:25;32.77;;;15.90;;
4377;SDS011;2203;53.686;9.994;2022-11-25T02:39:51;37.80;;;16.27;;
4377;SDS011;2203;53.686;9.994;2022-11-25T02:42:17;27.93;;;15.67;;
4377;SDS011;2203;53.686;9.994;2022-11-25T02:44:44;30.83;;;15.43;;
4377;SDS011;2203;53.686;9.994;2022-11-25T02:47:09;33.53;;;16.93;;
4377;SDS011;2203;53.686;9.994;2022-11-25T02:49:34;33.17;;;16.93;;
4377;SDS011;2203;53.686;9.994;2022-11-25T02:52:00;36.43;;;15.97;;
4377;SDS011;2203;53.686;9.994;2022-11-25T02:54:25;33.93;;;16.30;;
4377;SDS011;2203;53.686;9.994;2022-11-25T02:56:50;30.70;;;16.50;;
4377;SDS011;2203;53.686;9.994;2022-11-25T02:59:16;32.37;;;16.23;;
4377;SDS011;2203;53.686;9.994;2022-11-25T03:01:41;28.70;;;15.80;;
4377;SDS011;2203;53.686;9.994;2022-11-25T03:04:07;31.37;;;16.00;;
4377;SDS011;2203;53.686;9.994;2022-11-25T03:06:32;29.73;;;15.33;;
4377;SDS011;2203;53.686;9.994;2022-11-25T03:08:58;34.53;;;15.47;;
4377;SDS011;2203;53.686;9.994;2022-11-25T03:11:23;27.97;;;14.77;;
4377;SDS011;2203;53.686;9.994;2022-11-25T03:14:08;30.90;;;15.20;;
4377;SDS011;2203;53.686;9.994;2022-11-25T03:16:34;33.67;;;15.67;;
4377;SDS011;2203;53.686;9.994;2022-11-25T03:18:59;30.57;;;16.90;;
4377;SDS011;2203;53.686;9.994;2022-11-25T03:21:25;28.13;;;14.80;;
4377;SDS011;2203;53.686;9.994;2022-11-25T03:23:50;30.60;;;14.63;;
4377;SDS011;2203;53.686;9.994;2022-11-25T03:26:15;28.20;;;15.40;;
4377;SDS011;2203;53.686;9.994;2022-11-25T03:28:41;40.07;;;16.30;;
4377;SDS011;2203;53.686;9.994;2022-11-25T03:31:09;25.43;;;12.93;;
4377;SDS011;2203;53.686;9.994;2022-11-25T03:33:35;34.30;;;15.87;;
4377;SDS011;2203;53.686;9.994;2022-11-25T03:36:00;27.17;;;14.33;;
4377;SDS011;2203;53.686;9.994;2022-11-25T03:38:25;29.20;;;14.60;;
4377;SDS011;2203;53.686;9.994;2022-11-25T03:40:51;27.43;;;15.10;;
4377;SDS011;2203;53.686;9.994;2022-11-25T03:43:16;28.80;;;14.70;;
4377;SDS011;2203;53.686;9.994;2022-11-25T03:45:42;31.83;;;15.20;;
4377;SDS011;2203;53.686;9.994;2022-11-25T03:48:07;28.23;;;15.43;;
4377;SDS011;2203;53.686;9.994;2022-11-25T03:50:32;25.33;;;14.40;;
4377;SDS011;2203;53.686;9.994;2022-11-25T03:52:58;31.80;;;15.10;;
4377;SDS011;2203;53.686;9.994;2022-11-25T03:55:23;26.73;;;14.53;;
4377;SDS011;2203;53.686;9.994;2022-11-25T03:57:49;28.33;;;14.40;;
4377;SDS011;2203;53.686;9.994;2022-11-25T04:00:14;32.03;;;13.70;;
4377;SDS011;2203;53.686;9.994;2022-11-25T04:02:39;30.90;;;14.60;;
4377;SDS011;2203;53.686;9.994;2022-11-25T04:05:05;26.43;;;13.70;;
4377;SDS011;2203;53.686;9.994;2022-11-25T04:07:31;35.53;;;13.57;;
4377;SDS011;2203;53.686;9.994;2022-11-25T04:09:56;32.37;;;13.97;;
4377;SDS011;2203;53.686;9.994;2022-11-25T04:12:21;27.30;;;14.50;;
4377;SDS011;2203;53.686;9.994;2022-11-25T04:15:05;32.83;;;14.40;;
4377;SDS011;2203;53.686;9.994;2022-11-25T04:17:31;35.03;;;14.43;;
4377;SDS011;2203;53.686;9.994;2022-11-25T04:19:57;26.90;;;13.93;;
4377;SDS011;2203;53.686;9.994;2022-11-25T04:22:22;32.90;;;14.27;;
4377;SDS011;2203;53.686;9.994;2022-11-25T04:24:48;31.83;;;13.87;;
4377;SDS011;2203;53.686;9.994;2022-11-25T04:27:13;26.93;;;14.60;;
4377;SDS011;2203;53.686;9.994;2022-11-25T04:29:39;31.90;;;14.13;;
4377;SDS011;2203;53.686;9.994;2022-11-25T04:32:04;35.27;;;14.30;;
4377;SDS011;2203;53.686;9.994;2022-11-25T04:34:29;43.40;;;14.17;;
4377;SDS011;2203;53.686;9.994;2022-11-25T04:36:55;29.63;;;13.80;;
4377;SDS011;2203;53.686;9.994;2022-11-25T04:39:20;23.83;;;13.20;;
4377;SDS011;2203;53.686;9.994;2022-11-25T04:41:45;27.90;;;14.40;;
4377;SDS011;2203;53.686;9.994;2022-11-25T04:44:11;25.40;;;14.27;;
4377;SDS011;2203;53.686;9.994;2022-11-25T04:46:37;30.27;;;14.40;;
4377;SDS011;2203;53.686;9.994;2022-11-25T04:49:05;23.63;;;11.37;;
4377;SDS011;2203;53.686;9.994;2022-11-25T04:51:31;33.03;;;13.30;;
4377;SDS011;2203;53.686;9.994;2022-11-25T04:53:56;12.23;;;4.87;;
4377;SDS011;2203;53.686;9.994;2022-11-25T04:56:22;26.57;;;11.17;;
4377;SDS011;2203;53.686;9.994;2022-11-25T04:58:47;25.63;;;12.20;;
4377;SDS011;2203;53.686;9.994;2022-11-25T05:01:31;38.43;;;13.80;;
4377;SDS011;2203;53.686;9.994;2022-11-25T05:03:56;32.10;;;12.80;;
4377;SDS011;2203;53.686;9.994;2022-11-25T05:06:22;28.77;;;13.90;;
4377;SDS011;2203;53.686;9.994;2022-11-25T05:08:48;28.97;;;12.70;;
4377;SDS011;2203;53.686;9.994;2022-11-25T05:11:14;23.10;;;12.40;;
4377;SDS011;2203;53.686;9.994;2022-11-25T05:13:39;34.07;;;11.93;;
4377;SDS011;2203;53.686;9.994;2022-11-25T05:16:05;28.07;;;12.23;;
4377;SDS011;2203;53.686;9.994;2022-11-25T05:18:31;27.17;;;12.27;;
4377;SDS011;2203;53.686;9.994;2022-11-25T05:20:59;31.90;;;14.17;;
4377;SDS011;2203;53.686;9.994;2022-11-25T05:23:28;23.83;;;10.33;;
4377;SDS011;2203;53.686;9.994;2022-11-25T05:26:02;25.23;;;11.87;;
4377;SDS011;2203;53.686;9.994;2022-11-25T05:28:29;32.90;;;10.37;;
4377;SDS011;2203;53.686;9.994;2022-11-25T05:30:55;24.10;;;11.20;;
4377;SDS011;2203;53.686;9.994;2022-11-25T05:33:20;21.57;;;11.50;;
4377;SDS011;2203;53.686;9.994;2022-11-25T05:35:52;25.67;;;10.53;;
4377;SDS011;2203;53.686;9.994;2022-11-25T05:38:19;20.30;;;10.73;;
4377;SDS011;2203;53.686;9.994;2022-11-25T05:40:44;21.27;;;10.07;;
4377;SDS011;2203;53.686;9.994;2022-11-25T05:43:09;24.53;;;10.33;;
4377;SDS011;2203;53.686;9.994;2022-11-25T05:45:37;18.33;;;8.43;;
4377;SDS011;2203;53.686;9.994;2022-11-25T05:48:02;24.37;;;9.47;;
4377;SDS011;2203;53.686;9.994;2022-11-25T05:50:28;24.53;;;11.83;;
4377;SDS011;2203;53.686;9.994;2022-11-25T05:52:53;23.80;;;9.47;;
4377;SDS011;2203;53.686;9.994;2022-11-25T05:55:18;21.27;;;9.60;;
4377;SDS011;2203;53.686;9.994;2022-11-25T05:57:44;28.47;;;10.07;;
4377;SDS011;2203;53.686;9.994;2022-11-25T06:00:09;29.23;;;10.73;;
4377;SDS011;2203;53.686;9.994;2022-11-25T06:02:35;24.63;;;9.53;;
4377;SDS011;2203;53.686;9.994;2022-11-25T06:05:00;22.80;;;9.33;;
4377;SDS011;2203;53.686;9.994;2022-11-25T06:07:26;21.23;;;8.50;;
4377;SDS011;2203;53.686;9.994;2022-11-25T06:09:51;23.10;;;8.93;;
4377;SDS011;2203;53.686;9.994;2022-11-25T06:12:18;22.90;;;8.40;;
4377;SDS011;2203;53.686;9.994;2022-11-25T06:14:45;20.37;;;9.53;;
4377;SDS011;2203;53.686;9.994;2022-11-25T06:17:11;18.40;;;8.70;;
4377;SDS011;2203;53.686;9.994;2022-11-25T06:19:36;20.30;;;8.30;;
4377;SDS011;2203;53.686;9.994;2022-11-25T06:22:01;31.20;;;10.20;;
4377;SDS011;2203;53.686;9.994;2022-11-25T06:24:27;26.80;;;9.73;;
4377;SDS011;2203;53.686;9.994;2022-11-25T06:26:52;19.50;;;8.27;;
4377;SDS011;2203;53.686;9.994;2022-11-25T06:29:17;29.70;;;10.67;;
4377;SDS011;2203;53.686;9.994;2022-11-25T06:31:43;29.47;;;8.53;;
4377;SDS011;2203;53.686;9.994;2022-11-25T06:34:08;28.50;;;9.80;;
4377;SDS011;2203;53.686;9.994;2022-11-25T06:36:34;24.57;;;9.70;;
4377;SDS011;2203;53.686;9.994;2022-11-25T06:38:59;30.10;;;11.00;;
4377;SDS011;2203;53.686;9.994;2022-11-25T06:41:24;26.00;;;10.27;;
4377;SDS011;2203;53.686;9.994;2022-11-25T06:43:50;23.57;;;9.30;;
4377;SDS011;2203;53.686;9.994;2022-11-25T06:46:17;21.93;;;8.83;;
4377;SDS011;2203;53.686;9.994;2022-11-25T06:48:43;23.77;;;8.60;;
4377;SDS011;2203;53.686;9.994;2022-11-25T06:51:09;21.50;;;9.40;;
4377;SDS011;2203;53.686;9.994;2022-11-25T06:53:36;25.63;;;9.23;;
4377;SDS011;2203;53.686;9.994;2022-11-25T06:56:06;29.70;;;9.50;;
4377;SDS011;2203;53.686;9.994;2022-11-25T06:58:33;28.77;;;9.40;;
4377;SDS011;2203;53.686;9.994;2022-11-25T07:01:02;25.07;;;8.93;;
4377;SDS011;2203;53.686;9.994;2022-11-25T07:03:28;24.50;;;9.17;;
4377;SDS011;2203;53.686;9.994;2022-11-25T07:05:57;20.63;;;8.80;;
4377;SDS011;2203;53.686;9.994;2022-11-25T07:08:24;23.43;;;8.73;;
4377;SDS011;2203;53.686;9.994;2022-11-25T07:10:50;25.10;;;10.10;;
4377;SDS011;2203;53.686;9.994;2022-11-25T07:13:15;26.13;;;9.23;;
4377;SDS011;2203;53.686;9.994;2022-11-25T07:15:40;28.23;;;11.10;;
4377;SDS011;2203;53.686;9.994;2022-11-25T07:18:06;24.77;;;9.50;;
4377;SDS011;2203;53.686;9.994;2022-11-25T07:20:31;43.70;;;10.10;;
4377;SDS011;2203;53.686;9.994;2022-11-25T07:22:57;23.33;;;9.00;;
4377;SDS011;2203;53.686;9.994;2022-11-25T07:25:22;25.90;;;9.20;;
4377;SDS011;2203;53.686;9.994;2022-11-25T07:27:47;23.93;;;8.63;;
4377;SDS011;2203;53.686;9.994;2022-11-25T07:30:13;23.77;;;8.40;;
4377;SDS011;2203;53.686;9.994;2022-11-25T07:32:39;20.07;;;7.87;;
4377;SDS011;2203;53.686;9.994;2022-11-25T07:35:04;19.00;;;8.10;;
4377;SDS011;2203;53.686;9.994;2022-11-25T07:37:30;15.97;;;7.53;;
4377;SDS011;2203;53.686;9.994;2022-11-25T07:39:55;22.97;;;8.03;;
4377;SDS011;2203;53.686;9.994;2022-11-25T07:42:21;17.00;;;8.97;;
4377;SDS011;2203;53.686;9.994;2022-11-25T07:44:47;23.97;;;8.70;;
4377;SDS011;2203;53.686;9.994;2022-11-25T07:47:13;19.37;;;8.40;;
4377;SDS011;2203;53.686;9.994;2022-11-25T07:49:38;25.60;;;8.27;;
4377;SDS011;2203;53.686;9.994;2022-11-25T07:52:03;26.33;;;7.87;;
4377;SDS011;2203;53.686;9.994;2022-11-25T07:54:29;19.37;;;8.40;;
4377;SDS011;2203;53.686;9.994;2022-11-25T07:56:55;17.93;;;8.30;;
4377;SDS011;2203;53.686;9.994;2022-11-25T07:59:21;24.67;;;8.67;;
4377;SDS011;2203;53.686;9.994;2022-11-25T08:01:48;31.20;;;9.03;;
4377;SDS011;2203;53.686;9.994;2022-11-25T08:04:14;17.73;;;8.13;;
4377;SDS011;2203;53.686;9.994;2022-11-25T08:06:40;20.40;;;7.93;;
4377;SDS011;2203;53.686;9.994;2022-11-25T08:09:07;22.83;;;8.03;;
4377;SDS011;2203;53.686;9.994;2022-11-25T08:11:37;23.90;;;8.40;;
4377;SDS011;2203;53.686;9.994;2022-11-25T08:14:03;23.60;;;8.33;;
4377;SDS011;2203;53.686;9.994;2022-11-25T08:16:29;24.53;;;7.17;;
4377;SDS011;2203;53.686;9.994;2022-11-25T08:18:55;27.20;;;8.23;;
4377;SDS011;2203;53.686;9.994;2022-11-25T08:21:22;22.43;;;8.07;;
4377;SDS011;2203;53.686;9.994;2022-11-25T08:23:47;16.40;;;6.20;;
4377;SDS011;2203;53.686;9.994;2022-11-25T08:26:17;26.20;;;7.73;;
4377;SDS011;2203;53.686;9.994;2022-11-25T08:28:47;23.83;;;6.73;;
4377;SDS011;2203;53.686;9.994;2022-11-25T08:31:20;25.50;;;6.30;;
4377;SDS011;2203;53.686;9.994;2022-11-25T08:33:46;15.87;;;7.33;;
4377;SDS011;2203;53.686;9.994;2022-11-25T08:36:13;25.50;;;7.40;;
4377;SDS011;2203;53.686;9.994;2022-11-25T08:38:39;21.50;;;7.03;;
4377;SDS011;2203;53.686;9.994;2022-11-25T08:41:12;19.27;;;5.97;;
4377;SDS011;2203;53.686;9.994;2022-11-25T08:43:40;17.53;;;5.63;;
4377;SDS011;2203;53.686;9.994;2022-11-25T08:46:09;22.37;;;7.20;;
4377;SDS011;2203;53.686;9.994;2022-11-25T08:48:37;25.07;;;5.53;;
4377;SDS011;2203;53.686;9.994;2022-11-25T08:51:05;18.00;;;6.40;;
4377;SDS011;2203;53.686;9.994;2022-11-25T08:53:32;17.90;;;5.80;;
4377;SDS011;2203;53.686;9.994;2022-11-25T08:55:57;22.83;;;5.80;;
4377;SDS011;2203;53.686;9.994;2022-11-25T08:58:23;26.57;;;6.23;;
4377;SDS011;2203;53.686;9.994;2022-11-25T09:00:48;21.00;;;6.90;;
4377;SDS011;2203;53.686;9.994;2022-11-25T09:03:14;19.77;;;5.80;;
4377;SDS011;2203;53.686;9.994;2022-11-25T09:05:40;23.80;;;5.90;;
4377;SDS011;2203;53.686;9.994;2022-11-25T09:08:06;15.00;;;4.93;;
4377;SDS011;2203;53.686;9.994;2022-11-25T09:10:32;16.87;;;6.10;;
4377;SDS011;2203;53.686;9.994;2022-11-25T09:12:58;21.10;;;5.80;;
4377;SDS011;2203;53.686;9.994;2022-11-25T09:15:24;21.60;;;5.87;;
4377;SDS011;2203;53.686;9.994;2022-11-25T09:17:56;22.37;;;4.77;;
4377;SDS011;2203;53.686;9.994;2022-11-25T09:20:23;18.07;;;5.80;;
4377;SDS011;2203;53.686;9.994;2022-11-25T09:22:48;15.53;;;5.70;;
4377;SDS011;2203;53.686;9.994;2022-11-25T09:25:14;22.10;;;5.10;;
4377;SDS011;2203;53.686;9.994;2022-11-25T09:27:39;17.43;;;5.13;;
4377;SDS011;2203;53.686;9.994;2022-11-25T09:30:05;18.83;;;5.33;;
4377;SDS011;2203;53.686;9.994;2022-11-25T09:32:32;21.10;;;6.17;;
4377;SDS011;2203;53.686;9.994;2022-11-25T09:34:57;23.67;;;6.20;;
4377;SDS011;2203;53.686;9.994;2022-11-25T09:37:22;20.70;;;5.70;;
4377;SDS011;2203;53.686;9.994;2022-11-25T09:39:48;23.53;;;5.23;;
4377;SDS011;2203;53.686;9.994;2022-11-25T09:42:26;18.67;;;6.07;;
4377;SDS011;2203;53.686;9.994;2022-11-25T09:45:24;21.40;;;6.07;;
4377;SDS011;2203;53.686;9.994;2022-11-25T09:55:57;17.37;;;6.90;;
4377;SDS011;2203;53.686;9.994;2022-11-25T09:59:30;20.57;;;5.33;;
4377;SDS011;2203;53.686;9.994;2022-11-25T10:01:37;14.43;;;5.17;;
4377;SDS011;2203;53.686;9.994;2022-11-25T10:04:09;23.50;;;7.43;;
4377;SDS011;2203;53.686;9.994;2022-11-25T10:06:49;20.40;;;5.80;;
4377;SDS011;2203;53.686;9.994;2022-11-25T10:09:18;16.80;;;6.20;;
4377;SDS011;2203;53.686;9.994;2022-11-25T10:11:49;29.00;;;7.03;;
4377;SDS011;2203;53.686;9.994;2022-11-25T10:14:18;27.37;;;6.20;;
4377;SDS011;2203;53.686;9.994;2022-11-25T10:17:17;30.07;;;7.53;;
4377;SDS011;2203;53.686;9.994;2022-11-25T10:22:48;21.20;;;6.77;;
4377;SDS011;2203;53.686;9.994;2022-11-25T10:30:29;16.50;;;6.40;;
4377;SDS011;2203;53.686;9.994;2022-11-25T10:35:42;20.67;;;6.83;;
4377;SDS011;2203;53.686;9.994;2022-11-25T10:38:20;18.63;;;7.10;;
4377;SDS011;2203;53.686;9.994;2022-11-25T10:40:49;19.50;;;6.80;;
4377;SDS011;2203;53.686;9.994;2022-11-25T10:43:15;21.03;;;5.70;;
4377;SDS011;2203;53.686;9.994;2022-11-25T10:54:08;24.40;;;6.47;;
4377;SDS011;2203;53.686;9.994;2022-11-25T10:59:26;20.50;;;6.50;;
4377;SDS011;2203;53.686;9.994;2022-11-25T11:02:40;17.30;;;6.37;;
4377;SDS011;2203;53.686;9.994;2022-11-25T11:04:55;39.93;;;7.50;;
4377;SDS011;2203;53.686;9.994;2022-11-25T11:07:40;16.63;;;6.37;;
4377;SDS011;2203;53.686;9.994;2022-11-25T11:13:01;21.03;;;7.63;;
4377;SDS011;2203;53.686;9.994;2022-11-25T11:15:31;18.80;;;6.77;;
4377;SDS011;2203;53.686;9.994;2022-11-25T11:20:45;22.57;;;6.40;;
4377;SDS011;2203;53.686;9.994;2022-11-25T11:23:12;29.23;;;7.20;;
4377;SDS011;2203;53.686;9.994;2022-11-25T11:25:39;18.13;;;6.40;;
4377;SDS011;2203;53.686;9.994;2022-11-25T11:28:25;19.33;;;7.40;;
4377;SDS011;2203;53.686;9.994;2022-11-25T11:31:18;21.93;;;7.07;;
4377;SDS011;2203;53.686;9.994;2022-11-25T11:39:12;32.50;;;8.70;;
4377;SDS011;2203;53.686;9.994;2022-11-25T11:53:05;24.50;;;6.97;;
4377;SDS011;2203;53.686;9.994;2022-11-25T11:55:55;26.07;;;8.00;;
4377;SDS011;2203;53.686;9.994;2022-11-25T12:07:36;18.60;;;7.63;;
4377;SDS011;2203;53.686;9.994;2022-11-25T12:10:23;31.20;;;6.83;;
4377;SDS011;2203;53.686;9.994;2022-11-25T12:13:02;23.30;;;7.93;;
4377;SDS011;2203;53.686;9.994;2022-11-25T12:21:12;19.97;;;7.00;;
4377;SDS011;2203;53.686;9.994;2022-11-25T12:26:28;25.50;;;8.10;;
4377;SDS011;2203;53.686;9.994;2022-11-25T12:28:58;31.60;;;7.73;;
4377;SDS011;2203;53.686;9.994;2022-11-25T12:31:30;20.37;;;8.40;;
4377;SDS011;2203;53.686;9.994;2022-11-25T12:34:12;41.33;;;8.93;;
4377;SDS011;2203;53.686;9.994;2022-11-25T12:36:42;22.00;;;8.10;;
4377;SDS011;2203;53.686;9.994;2022-11-25T12:41:58;35.80;;;8.57;;
4377;SDS011;2203;53.686;9.994;2022-11-25T12:44:33;38.63;;;7.40;;
4377;SDS011;2203;53.686;9.994;2022-11-25T12:47:06;34.47;;;7.93;;
4377;SDS011;2203;53.686;9.994;2022-11-25T12:49:39;20.57;;;6.33;;
4377;SDS011;2203;53.686;9.994;2022-11-25T12:55:16;22.63;;;7.33;;
4377;SDS011;2203;53.686;9.994;2022-11-25T13:00:41;29.87;;;8.33;;
4377;SDS011;2203;53.686;9.994;2022-11-25T13:06:22;28.80;;;7.33;;
4377;SDS011;2203;53.686;9.994;2022-11-25T13:09:06;32.03;;;7.63;;
4377;SDS011;2203;53.686;9.994;2022-11-25T13:17:43;17.33;;;7.50;;
4377;SDS011;2203;53.686;9.994;2022-11-25T13:23:00;19.70;;;7.57;;
4377;SDS011;2203;53.686;9.994;2022-11-25T13:25:27;29.63;;;8.00;;
4377;SDS011;2203;53.686;9.994;2022-11-25T13:32:56;25.03;;;7.80;;
4377;SDS011;2203;53.686;9.994;2022-11-25T13:35:28;20.67;;;7.20;;
4377;SDS011;2203;53.686;9.994;2022-11-25T13:37:55;33.00;;;8.77;;
4377;SDS011;2203;53.686;9.994;2022-11-25T13:42:50;35.50;;;7.83;;
4377;SDS011;2203;53.686;9.994;2022-11-25T13:45:29;18.10;;;7.63;;
4377;SDS011;2203;53.686;9.994;2022-11-25T13:50:42;20.97;;;8.73;;
4377;SDS011;2203;53.686;9.994;2022-11-25T13:53:25;24.20;;;8.43;;
4377;SDS011;2203;53.686;9.994;2022-11-25T13:56:13;23.13;;;8.50;;
4377;SDS011;2203;53.686;9.994;2022-11-25T13:58:41;23.03;;;7.90;;
4377;SDS011;2203;53.686;9.994;2022-11-25T14:01:34;27.40;;;8.10;;
4377;SDS011;2203;53.686;9.994;2022-11-25T14:04:06;27.47;;;8.27;;
4377;SDS011;2203;53.686;9.994;2022-11-25T14:06:41;32.00;;;9.33;;
4377;SDS011;2203;53.686;9.994;2022-11-25T14:15:02;22.80;;;8.27;;
4377;SDS011;2203;53.686;9.994;2022-11-25T14:25:28;35.83;;;9.40;;
4377;SDS011;2203;53.686;9.994;2022-11-25T14:28:08;22.50;;;8.77;;
4377;SDS011;2203;53.686;9.994;2022-11-25T14:30:45;26.43;;;7.97;;
4377;SDS011;2203;53.686;9.994;2022-11-25T14:33:15;26.10;;;8.07;;
4377;SDS011;2203;53.686;9.994;2022-11-25T14:35:54;16.77;;;7.90;;
4377;SDS011;2203;53.686;9.994;2022-11-25T14:38:27;23.40;;;7.93;;
4377;SDS011;2203;53.686;9.994;2022-11-25T14:43:55;12.43;;;5.67;;
4377;SDS011;2203;53.686;9.994;2022-11-25T14:46:23;30.90;;;7.53;;
4377;SDS011;2203;53.686;9.994;2022-11-25T14:48:59;39.90;;;9.40;;
4377;SDS011;2203;53.686;9.994;2022-11-25T14:51:27;26.23;;;8.80;;
4377;SDS011;2203;53.686;9.994;2022-11-25T14:53:58;29.20;;;10.13;;
4377;SDS011;2203;53.686;9.994;2022-11-25T14:56:28;23.60;;;8.60;;
4377;SDS011;2203;53.686;9.994;2022-11-25T14:58:55;24.63;;;8.77;;
4377;SDS011;2203;53.686;9.994;2022-11-25T15:03:47;30.83;;;9.43;;
4377;SDS011;2203;53.686;9.994;2022-11-25T15:06:14;18.43;;;9.40;;
4377;SDS011;2203;53.686;9.994;2022-11-25T15:08:43;18.90;;;9.00;;
4377;SDS011;2203;53.686;9.994;2022-11-25T15:11:15;27.60;;;9.93;;
4377;SDS011;2203;53.686;9.994;2022-11-25T15:14:03;23.17;;;10.33;;
4377;SDS011;2203;53.686;9.994;2022-11-25T15:16:32;40.93;;;9.60;;
4377;SDS011;2203;53.686;9.994;2022-11-25T15:19:00;31.43;;;9.10;;
4377;SDS011;2203;53.686;9.994;2022-11-25T15:21:28;24.20;;;9.17;;
4377;SDS011;2203;53.686;9.994;2022-11-25T15:23:56;32.87;;;10.13;;
4377;SDS011;2203;53.686;9.994;2022-11-25T15:26:22;31.07;;;10.37;;
4377;SDS011;2203;53.686;9.994;2022-11-25T15:28:52;24.93;;;9.90;;
4377;SDS011;2203;53.686;9.994;2022-11-25T15:31:20;25.17;;;11.60;;
4377;SDS011;2203;53.686;9.994;2022-11-25T15:33:49;26.60;;;8.13;;
4377;SDS011;2203;53.686;9.994;2022-11-25T15:36:17;22.03;;;9.30;;
4377;SDS011;2203;53.686;9.994;2022-11-25T15:38:44;27.47;;;8.37;;
4377;SDS011;2203;53.686;9.994;2022-11-25T15:43:38;29.17;;;10.00;;
4377;SDS011;2203;53.686;9.994;2022-11-25T15:46:10;29.97;;;9.90;;
4377;SDS011;2203;53.686;9.994;2022-11-25T15:48:40;25.57;;;9.17;;
4377;SDS011;2203;53.686;9.994;2022-11-25T15:53:53;30.40;;;9.77;;
4377;SDS011;2203;53.686;9.994;2022-11-25T15:56:23;22.93;;;8.40;;
4377;SDS011;2203;53.686;9.994;2022-11-25T15:58:50;24.47;;;10.40;;
4377;SDS011;2203;53.686;9.994;2022-11-25T16:03:42;36.80;;;11.70;;
4377;SDS011;2203;53.686;9.994;2022-11-25T16:06:23;32.50;;;10.40;;
4377;SDS011;2203;53.686;9.994;2022-11-25T16:11:22;27.80;;;10.90;;
4377;SDS011;2203;53.686;9.994;2022-11-25T16:13:49;29.80;;;11.33;;
4377;SDS011;2203;53.686;9.994;2022-11-25T16:21:23;34.53;;;12.50;;
4377;SDS011;2203;53.686;9.994;2022-11-25T16:23:51;33.20;;;11.33;;
4377;SDS011;2203;53.686;9.994;2022-11-25T16:26:37;44.57;;;13.13;;
4377;SDS011;2203;53.686;9.994;2022-11-25T16:31:59;51.77;;;15.30;;
4377;SDS011;2203;53.686;9.994;2022-11-25T16:34:26;32.00;;;15.37;;
4377;SDS011;2203;53.686;9.994;2022-11-25T16:36:51;34.33;;;15.40;;
4377;SDS011;2203;53.686;9.994;2022-11-25T16:39:17;44.97;;;16.27;;
4377;SDS011;2203;53.686;9.994;2022-11-25T16:41:44;42.27;;;16.60;;
4377;SDS011;2203;53.686;9.994;2022-11-25T16:44:19;37.10;;;15.70;;
4377;SDS011;2203;53.686;9.994;2022-11-25T16:46:45;42.93;;;14.30;;
4377;SDS011;2203;53.686;9.994;2022-11-25T16:49:12;34.50;;;16.00;;
4377;SDS011;2203;53.686;9.994;2022-11-25T16:51:38;48.23;;;16.40;;
4377;SDS011;2203;53.686;9.994;2022-11-25T16:54:03;34.00;;;13.57;;
4377;SDS011;2203;53.686;9.994;2022-11-25T16:56:29;47.60;;;16.43;;
4377;SDS011;2203;53.686;9.994;2022-11-25T16:58:54;40.17;;;14.33;;
4377;SDS011;2203;53.686;9.994;2022-11-25T17:01:22;43.33;;;14.83;;
4377;SDS011;2203;53.686;9.994;2022-11-25T17:03:49;45.80;;;16.00;;
4377;SDS011;2203;53.686;9.994;2022-11-25T17:06:16;30.37;;;13.87;;
4377;SDS011;2203;53.686;9.994;2022-11-25T17:08:44;33.27;;;13.97;;
4377;SDS011;2203;53.686;9.994;2022-11-25T17:11:14;37.30;;;15.23;;
4377;SDS011;2203;53.686;9.994;2022-11-25T17:13:47;40.87;;;13.70;;
4377;SDS011;2203;53.686;9.994;2022-11-25T17:16:20;35.03;;;14.70;;
4377;SDS011;2203;53.686;9.994;2022-11-25T17:18:48;40.27;;;14.30;;
4377;SDS011;2203;53.686;9.994;2022-11-25T17:21:15;32.93;;;14.00;;
4377;SDS011;2203;53.686;9.994;2022-11-25T17:23:41;43.23;;;15.63;;
4377;SDS011;2203;53.686;9.994;2022-11-25T17:26:17;45.73;;;15.53;;
4377;SDS011;2203;53.686;9.994;2022-11-25T17:28:46;40.10;;;15.73;;